Time;durP1;ratioP1;P1;durP2;ratioP2;P2;SDS_P1;SDS_P2;PMS_P1;PMS_P2;Temp;Humidity;BMP_temperature;BMP_pressure;BME280_temperature;BME280_humidity;BME280_pressure;Samples;Min_cycle;Max_cycle;Signal;HPM_P1;HPM_P2
2022/10/01 00:01:47;;;;;;;5.90;4.30;;;;;;;8.91;70.62;98497.63;5134426;27;41751;-84
2022/10/01 00:04:15;;;;;;;4.27;3.67;;;;;;;8.88;71.13;98489.09;5134308;27;43427;-86
2022/10/01 00:06:43;;;;;;;4.10;3.43;;;;;;;8.99;70.89;98510.41;5134627;27;42173;-82
2022/10/01 00:09:13;;;;;;;5.03;3.90;;;;;;;8.93;70.89;98508.13;5134318;27;40270;-82
2022/10/01 00:11:41;;;;;;;5.63;3.67;;;;;;;8.82;71.15;98495.56;5134008;27;40751;-83
2022/10/01 00:14:10;;;;;;;4.03;3.60;;;;;;;8.88;71.23;98497.84;5116823;27;44558;-83
2022/10/01 00:16:38;;;;;;;4.70;3.87;;;;;;;8.84;71.91;98491.06;5116711;27;41174;-85
2022/10/01 00:19:05;;;;;;;4.20;3.80;;;;;;;8.64;72.43;98454.47;5134009;27;39603;-84
2022/10/01 00:21:33;;;;;;;5.20;4.30;;;;;;;8.93;72.01;98508.97;5133893;27;40706;-85
2022/10/01 00:24:04;;;;;;;4.33;3.70;;;;;;;8.84;71.79;98498.13;5116611;27;41266;-85
2022/10/01 00:26:34;;;;;;;4.17;3.77;;;;;;;8.94;71.83;98505.38;5134031;27;42238;-84
2022/10/01 00:29:04;;;;;;;4.37;3.63;;;;;;;8.92;71.78;98499.34;5116027;27;40490;-83
2022/10/01 00:31:33;;;;;;;4.50;3.47;;;;;;;8.77;72.48;98470.41;5116577;27;41794;-84
2022/10/01 00:34:02;;;;;;;4.93;4.30;;;;;;;8.94;72.66;98500.09;5116477;27;42017;-82
2022/10/01 00:36:31;;;;;;;5.43;3.97;;;;;;;8.84;72.50;98487.56;5133393;27;41861;-84
2022/10/01 00:39:00;;;;;;;4.30;3.90;;;;;;;8.91;72.22;98500.28;5116560;27;41485;-84
2022/10/01 00:41:30;;;;;;;3.70;3.30;;;;;;;8.91;72.66;98505.56;5133757;27;40524;-82
2022/10/01 00:44:01;;;;;;;3.93;3.63;;;;;;;8.90;72.55;98500.41;5133297;27;43938;-84
2022/10/01 00:46:41;;;;;;;4.60;4.20;;;;;;;8.87;72.78;98504.06;5133929;27;41930;-85
2022/10/01 00:49:15;;;;;;;4.17;3.77;;;;;;;8.75;73.07;98490.78;5116193;27;38554;-84
2022/10/01 00:51:47;;;;;;;4.87;4.03;;;;;;;8.86;73.06;98512.94;5116832;27;40284;-84
2022/10/01 00:54:17;;;;;;;5.23;4.77;;;;;;;8.86;73.71;98512.09;5114644;27;41910;-83
2022/10/01 00:56:46;;;;;;;5.00;3.93;;;;;;;8.84;73.83;98504.25;5115665;27;41198;-83
2022/10/01 00:59:17;;;;;;;4.57;4.10;;;;;;;8.90;74.27;98509.16;5116133;27;40102;-82
2022/10/01 01:01:44;;;;;;;5.30;4.13;;;;;;;8.84;74.92;98498.97;5125007;27;42489;-82
2022/10/01 01:04:16;;;;;;;4.77;4.27;;;;;;;8.93;74.87;98502.84;5115118;27;42588;-83
2022/10/01 01:06:46;;;;;;;5.73;4.60;;;;;;;8.93;74.84;98501.03;5130004;27;42734;-84
2022/10/01 01:09:14;;;;;;;5.70;3.97;;;;;;;8.94;75.13;98494.81;5115693;27;40035;-84
2022/10/01 01:11:51;;;;;;;6.90;4.47;;;;;;;8.87;75.70;98477.66;5115751;27;43170;-82
2022/10/01 01:14:27;;;;;;;4.63;3.53;;;;;;;8.99;75.15;98490.13;5115759;27;41695;-85
2022/10/01 01:17:00;;;;;;;5.30;3.97;;;;;;;9.00;74.97;98483.91;5116146;27;41471;-81
2022/10/01 01:19:43;;;;;;;5.83;4.53;;;;;;;9.03;75.39;98485.47;5132827;27;40103;-83
2022/10/01 01:22:14;;;;;;;5.00;4.23;;;;;;;8.96;75.64;98469.16;5133283;27;40770;-83
2022/10/01 01:24:50;;;;;;;4.40;4.00;;;;;;;9.08;75.60;98485.19;5115269;27;42132;-82
2022/10/01 01:27:30;;;;;;;5.73;4.20;;;;;;;8.98;75.44;98472.56;5115783;27;42833;-84
2022/10/01 01:30:04;;;;;;;5.33;3.97;;;;;;;9.10;75.58;98489.44;5132400;27;40231;-83
2022/10/01 01:32:45;;;;;;;5.37;4.50;;;;;;;9.04;75.55;98467.81;5132946;27;41266;-84
2022/10/01 01:35:21;;;;;;;5.53;4.90;;;;;;;9.15;76.25;98481.25;5115631;27;42022;-83
2022/10/01 01:37:54;;;;;;;6.40;5.30;;;;;;;9.17;76.79;98480.19;5130052;27;42607;-84
2022/10/01 01:40:23;;;;;;;5.67;4.30;;;;;;;9.20;76.04;98479.16;5132564;27;39843;-83
2022/10/01 01:42:54;;;;;;;4.93;4.43;;;;;;;9.22;76.07;98466.69;5115720;27;40761;-82
2022/10/01 01:45:29;;;;;;;5.43;4.40;;;;;;;9.22;75.93;98466.69;5115366;27;42916;-83
2022/10/01 01:47:59;;;;;;;7.33;5.40;;;;;;;9.12;75.59;98449.72;5132773;27;44341;-84
2022/10/01 01:50:30;;;;;;;4.40;4.00;;;;;;;9.23;75.53;98455.19;5115292;27;38647;-83
2022/10/01 01:52:58;;;;;;;5.13;4.37;;;;;;;9.13;75.51;98431.16;5132192;27;41912;-84
2022/10/01 01:55:28;;;;;;;4.53;4.00;;;;;;;9.24;75.75;98446.31;5114857;27;42256;-85
2022/10/01 01:57:57;;;;;;;5.83;5.20;;;;;;;9.14;75.18;98432.00;5115118;27;42648;-83
2022/10/01 02:00:26;;;;;;;6.17;5.10;;;;;;;9.23;75.23;98442.81;5115072;27;39088;-83
2022/10/01 02:02:57;;;;;;;5.10;4.40;;;;;;;9.24;75.00;98441.03;5132550;27;41768;-83
2022/10/01 02:05:29;;;;;;;4.27;3.87;;;;;;;9.25;75.08;98440.09;5115095;27;42859;-82
2022/10/01 02:08:31;;;;;;;5.40;4.40;;;;;;;9.25;75.86;98434.81;5115036;27;41595;-82
2022/10/01 02:11:18;;;;;;;5.73;4.83;;;;;;;9.20;75.45;98421.03;5132593;27;38996;-83
2022/10/01 02:13:54;;;;;;;6.03;5.43;;;;;;;9.31;75.81;98435.25;5129809;27;41862;-83
2022/10/01 02:16:30;;;;;;;7.07;5.27;;;;;;;9.33;76.13;98430.72;5130267;27;42688;-82
2022/10/01 02:19:02;;;;;;;5.43;4.77;;;;;;;9.38;75.61;98434.88;5114443;27;41435;-83
2022/10/01 02:21:34;;;;;;;6.37;5.23;;;;;;;9.28;76.04;98413.44;5114965;27;41277;-83
2022/10/01 02:24:09;;;;;;;6.80;4.90;;;;;;;9.32;75.86;98421.09;5132434;27;40904;-84
2022/10/01 02:26:39;;;;;;;7.57;5.37;;;;;;;9.35;76.13;98417.41;5132705;27;43023;-84
2022/10/01 02:29:10;;;;;;;6.97;5.43;;;;;;;9.47;76.11;98429.81;5131992;27;41193;-82
2022/10/01 02:31:40;;;;;;;5.83;5.23;;;;;;;9.52;75.87;98438.28;5114931;27;38860;-83
2022/10/01 02:34:10;;;;;;;5.87;4.83;;;;;;;9.57;75.63;98433.56;5114466;27;40595;-83
2022/10/01 02:36:41;;;;;;;6.43;5.63;;;;;;;9.60;75.60;98445.75;5114860;27;42707;-82
2022/10/01 02:39:10;;;;;;;7.70;5.70;;;;;;;9.41;76.11;98393.22;5114691;27;42260;-82
2022/10/01 02:41:38;;;;;;;7.30;6.27;;;;;;;9.57;76.58;98409.78;5132030;27;38664;-85
2022/10/01 02:44:09;;;;;;;8.20;6.30;;;;;;;9.53;76.29;98394.19;5131457;27;41691;-84
2022/10/01 02:46:48;;;;;;;6.10;5.50;;;;;;;9.77;76.21;98423.50;5133107;27;42183;-82
2022/10/01 02:49:16;;;;;;;7.00;5.93;;;;;;;9.74;76.40;98406.03;5131750;27;40897;-83
2022/10/01 02:51:53;;;;;;;11.53;6.10;;;;;;;9.78;76.07;98406.66;5135481;27;39913;-82
2022/10/01 02:54:27;;;;;;;7.30;5.80;;;;;;;9.85;76.05;98419.38;5117937;27;42553;-83
2022/10/01 02:59:40;;;;;;;8.00;6.20;;;;;;;9.84;75.97;98399.16;5117682;27;42381;-84
2022/10/01 03:02:10;;;;;;;6.53;5.47;;;;;;;9.89;76.08;98402.34;5135541;27;39134;-83
2022/10/01 03:04:38;;;;;;;8.23;6.87;;;;;;;9.87;76.39;98391.03;5117685;27;40404;-83
2022/10/01 03:07:06;;;;;;;8.93;6.23;;;;;;;9.94;76.14;98396.75;5135356;27;41663;-84
2022/10/01 03:09:35;;;;;;;8.20;6.73;;;;;;;9.89;76.55;98383.81;5117319;27;42953;-84
2022/10/01 03:12:05;;;;;;;9.07;6.70;;;;;;;9.82;76.77;98365.84;5135240;27;40897;-83
2022/10/01 03:14:33;;;;;;;8.97;7.30;;;;;;;10.03;77.16;98385.53;5117420;27;43673;-83
2022/10/01 03:17:00;;;;;;;9.83;6.50;;;;;;;10.05;76.91;98373.06;5135142;27;42814;-84
2022/10/01 03:19:30;;;;;;;9.50;7.50;;;;;;;10.03;76.80;98359.09;5134800;27;42993;-84
2022/10/01 03:21:57;;;;;;;10.70;8.30;;;;;;;10.12;77.09;98362.94;5117925;27;39720;-84
2022/10/01 03:24:25;;;;;;;9.37;7.27;;;;;;;10.10;76.74;98352.44;5117565;27;40720;-82
2022/10/01 03:26:54;;;;;;;9.20;6.77;;;;;;;10.26;76.95;98370.81;5135061;27;42785;-83
2022/10/01 03:29:21;;;;;;;9.37;6.60;;;;;;;10.22;76.54;98364.84;5117228;27;41348;-82
2022/10/01 03:31:49;;;;;;;8.43;6.67;;;;;;;10.24;76.32;98365.59;5117930;27;39135;-82
2022/10/01 03:34:17;;;;;;;9.20;6.80;;;;;;;10.26;77.26;98361.03;5134427;27;41790;-83
2022/10/01 03:36:47;;;;;;;8.33;6.60;;;;;;;10.28;76.53;98359.13;5135838;27;42822;-83
2022/10/01 03:39:15;;;;;;;9.13;7.63;;;;;;;10.40;76.56;98379.44;5117425;27;41338;-84
2022/10/01 03:41:42;;;;;;;9.83;7.70;;;;;;;10.33;76.12;98357.03;5100763;27;41029;-83
2022/10/01 03:44:10;;;;;;;10.53;7.40;;;;;;;10.46;76.27;98377.34;5134589;27;42692;-82
2022/10/01 03:46:38;;;;;;;8.33;6.90;;;;;;;10.43;75.84;98373.97;5134515;27;42678;-82
2022/10/01 03:49:06;;;;;;;7.93;6.83;;;;;;;10.48;75.87;98375.44;5117613;27;40919;-83
2022/10/01 03:51:36;;;;;;;9.27;7.50;;;;;;;10.50;75.69;98374.38;5117299;27;38821;-83
2022/10/01 03:54:06;;;;;;;8.43;7.03;;;;;;;10.51;76.15;98367.28;5134154;27;41807;-83
2022/10/01 03:56:34;;;;;;;10.97;7.73;;;;;;;10.41;75.94;98343.25;5117019;27;41876;-82
2022/10/01 03:59:02;;;;;;;8.97;7.10;;;;;;;10.42;76.04;98339.66;5116605;27;42668;-83
2022/10/01 04:01:30;;;;;;;7.90;6.50;;;;;;;10.53;75.58;98357.41;5134041;27;39610;-83
2022/10/01 04:03:58;;;;;;;13.00;7.70;;;;;;;10.52;75.66;98345.13;5133223;27;41704;-82
2022/10/01 04:06:26;;;;;;;8.53;6.70;;;;;;;10.54;75.71;98351.16;5117026;27;42136;-83
2022/10/01 04:08:54;;;;;;;7.27;6.57;;;;;;;10.53;75.94;98341.53;5134245;27;41841;-84
2022/10/01 04:11:24;;;;;;;8.23;6.90;;;;;;;10.50;75.89;98347.91;5117292;27;38787;-83
2022/10/01 04:13:52;;;;;;;8.67;7.20;;;;;;;10.55;75.55;98351.06;5134953;27;44251;-83
2022/10/01 04:16:19;;;;;;;7.33;6.27;;;;;;;10.57;75.42;98353.63;5116592;27;41811;-84
2022/10/01 04:18:47;;;;;;;8.30;6.50;;;;;;;10.30;75.32;98316.69;5134078;27;42296;-85
2022/10/01 04:21:15;;;;;;;8.37;6.57;;;;;;;10.47;75.14;98336.69;5117103;27;38971;-83
2022/10/01 04:23:43;;;;;;;6.90;5.80;;;;;;;10.39;75.33;98322.16;5134026;27;41199;-85
2022/10/01 04:26:11;;;;;;;9.13;6.10;;;;;;;10.44;75.62;98333.28;5135146;27;42776;-82
2022/10/01 04:28:40;;;;;;;6.67;6.03;;;;;;;10.47;75.43;98332.25;5134730;27;43053;-84
2022/10/01 04:31:26;;;;;;;7.03;5.70;;;;;;;10.58;75.58;98344.72;5134974;27;39950;-82
2022/10/01 04:33:55;;;;;;;6.83;6.13;;;;;;;10.49;75.36;98329.50;5116461;27;40375;-84
2022/10/01 04:36:25;;;;;;;6.70;6.03;;;;;;;10.44;75.38;98308.63;5133902;27;43336;-81
2022/10/01 04:38:53;;;;;;;7.20;6.17;;;;;;;10.61;75.44;98339.22;5116164;27;42535;-84
2022/10/01 04:41:21;;;;;;;8.13;5.93;;;;;;;10.56;75.81;98336.88;5116429;27;41687;-81
2022/10/01 04:43:51;;;;;;;7.77;5.97;;;;;;;10.55;75.70;98321.94;5134991;27;41718;-83
2022/10/01 04:46:18;;;;;;;6.77;5.97;;;;;;;10.59;75.74;98322.59;5116205;27;44417;-83
2022/10/01 04:48:47;;;;;;;6.30;5.70;;;;;;;10.29;75.76;98278.78;5115981;27;42545;-85
2022/10/01 04:51:15;;;;;;;6.13;5.53;;;;;;;10.68;75.90;98330.72;5133648;27;41075;-84
2022/10/01 04:53:43;;;;;;;8.23;6.27;;;;;;;10.71;75.44;98327.84;5115966;27;41747;-83
2022/10/01 04:56:11;;;;;;;6.57;5.80;;;;;;;10.72;75.29;98320.75;5115768;27;43570;-82
2022/10/01 04:58:39;;;;;;;6.33;5.17;;;;;;;10.57;75.35;98295.38;5133514;27;42140;-81
2022/10/01 05:01:08;;;;;;;6.80;5.27;;;;;;;10.80;75.00;98329.00;5116276;27;38640;-83
2022/10/01 05:03:36;;;;;;;5.97;4.93;;;;;;;10.72;74.87;98308.38;5116053;27;42469;-83
2022/10/01 05:06:04;;;;;;;5.53;4.77;;;;;;;10.76;74.94;98304.50;5133260;27;42784;-83
2022/10/01 05:08:31;;;;;;;5.30;4.70;;;;;;;10.80;74.78;98307.78;5115816;27;42376;-81
2022/10/01 05:10:59;;;;;;;7.37;5.50;;;;;;;10.83;74.55;98304.94;5115773;27;38865;-84
2022/10/01 05:13:30;;;;;;;7.57;5.40;;;;;;;10.96;74.84;98318.13;5132143;27;42656;-84
2022/10/01 05:15:58;;;;;;;6.87;4.70;;;;;;;11.00;74.42;98314.31;5115434;27;41625;-82
2022/10/01 05:18:27;;;;;;;6.37;5.20;;;;;;;11.03;74.60;98314.06;5132501;27;41231;-83
2022/10/01 05:20:55;;;;;;;5.30;4.63;;;;;;;11.01;74.59;98306.22;5132754;27;38857;-82
2022/10/01 05:23:22;;;;;;;5.13;4.63;;;;;;;11.14;74.25;98306.19;5132962;27;42771;-84
2022/10/01 05:25:50;;;;;;;4.80;4.33;;;;;;;11.07;74.16;98294.34;5115856;27;41759;-85
2022/10/01 05:28:18;;;;;;;4.87;4.00;;;;;;;11.19;73.85;98304.06;5132885;27;41923;-84
2022/10/01 05:30:45;;;;;;;4.33;3.93;;;;;;;11.18;74.05;98302.34;5132830;27;39064;-82
2022/10/01 05:33:13;;;;;;;5.23;4.70;;;;;;;11.10;73.81;98284.38;5130975;27;41926;-84
2022/10/01 05:35:43;;;;;;;6.10;4.27;;;;;;;11.27;73.88;98311.41;5112839;27;42567;-84
2022/10/01 05:38:11;;;;;;;5.37;4.47;;;;;;;11.28;73.49;98308.66;5133242;27;42403;-81
2022/10/01 05:40:38;;;;;;;4.93;4.43;;;;;;;11.31;73.44;98299.66;5115356;27;40005;-85
2022/10/01 05:43:06;;;;;;;5.17;4.50;;;;;;;11.23;73.66;98284.31;5133153;27;42090;-85
2022/10/01 05:45:34;;;;;;;7.80;4.53;;;;;;;11.34;73.66;98308.22;5115077;27;42535;-82
2022/10/01 05:48:04;;;;;;;4.90;3.73;;;;;;;11.37;73.47;98307.16;5115984;27;42315;-83
2022/10/01 05:50:34;;;;;;;4.33;3.93;;;;;;;11.42;73.56;98303.19;5115408;27;40112;-83
2022/10/01 05:53:03;;;;;;;4.40;3.90;;;;;;;11.43;73.65;98307.53;5115578;27;40617;-82
2022/10/01 05:55:33;;;;;;;4.00;3.60;;;;;;;11.34;73.34;98288.81;5131566;27;41426;-84
2022/10/01 05:58:03;;;;;;;3.40;3.10;;;;;;;11.47;73.27;98310.81;5115687;27;40770;-84
2022/10/01 06:00:32;;;;;;;4.23;3.53;;;;;;;11.49;73.38;98308.88;5115374;27;39101;-82
2022/10/01 06:03:01;;;;;;;4.20;3.10;;;;;;;11.46;73.28;98317.06;5132514;27;42062;-82
2022/10/01 06:05:31;;;;;;;3.90;3.23;;;;;;;11.46;73.32;98307.31;5111266;28;42008;-85
2022/10/01 06:07:59;;;;;;;4.50;2.67;;;;;;;11.31;73.64;98297.00;5125186;27;42625;-82
2022/10/01 06:10:29;;;;;;;3.53;3.00;;;;;;;11.39;74.45;98306.06;5127638;27;38773;-82
2022/10/01 06:13:00;;;;;;;4.13;2.70;;;;;;;11.27;74.69;98290.22;5127269;27;40849;-82
2022/10/01 06:15:28;;;;;;;4.63;3.20;;;;;;;11.33;74.78;98289.78;5139755;27;43621;-82
2022/10/01 06:17:56;;;;;;;3.63;3.30;;;;;;;11.32;75.46;98282.78;5137583;27;43616;-83
2022/10/01 06:20:24;;;;;;;4.17;3.37;;;;;;;11.31;75.32;98284.59;5115388;27;39012;-82
2022/10/01 06:22:57;;;;;;;3.57;3.20;;;;;;;11.30;76.00;98274.09;5111561;27;42362;-83
2022/10/01 06:25:28;;;;;;;3.07;2.70;;;;;;;11.29;76.27;98272.41;5127749;27;41690;-84
2022/10/01 06:27:59;;;;;;;2.77;2.50;;;;;;;11.28;76.01;98270.72;5116965;27;42973;-83
2022/10/01 06:30:28;;;;;;;4.77;2.60;;;;;;;11.21;76.32;98254.44;5113123;27;42145;-86
2022/10/01 06:33:01;;;;;;;3.27;2.73;;;;;;;11.18;76.70;98264.41;5116240;27;40524;-84
2022/10/01 06:35:29;;;;;;;2.87;2.60;;;;;;;11.21;76.75;98262.38;5131180;27;42702;-82
2022/10/01 06:37:57;;;;;;;2.50;2.30;;;;;;;11.21;77.46;98256.22;5116151;27;41814;-83
2022/10/01 06:40:25;;;;;;;2.30;2.10;;;;;;;11.21;76.94;98248.28;5090523;27;39086;-84
2022/10/01 06:42:52;;;;;;;2.63;2.40;;;;;;;11.18;77.52;98243.22;5133312;27;42722;-84
2022/10/01 06:45:22;;;;;;;2.43;2.23;;;;;;;11.13;78.17;98240.88;5132859;27;43721;-82
2022/10/01 06:47:54;;;;;;;2.93;2.40;;;;;;;11.12;78.57;98249.81;5134233;27;42551;-82
2022/10/01 06:50:23;;;;;;;2.70;2.50;;;;;;;11.11;78.30;98264.88;5133659;27;40135;-82
2022/10/01 06:52:50;;;;;;;2.57;2.37;;;;;;;11.11;77.98;98269.31;5117271;27;40826;-85
2022/10/01 06:55:19;;;;;;;3.13;2.53;;;;;;;11.16;78.29;98278.63;5117390;27;41775;-85
2022/10/01 06:57:49;;;;;;;2.53;2.30;;;;;;;11.21;78.32;98280.94;5118238;27;42228;-79
2022/10/01 07:00:17;;;;;;;3.00;2.70;;;;;;;11.16;78.19;98262.72;5117846;27;38800;-82
2022/10/01 07:02:46;;;;;;;2.50;2.30;;;;;;;11.28;78.46;98278.66;5117428;27;40686;-83
2022/10/01 07:05:14;;;;;;;2.83;2.63;;;;;;;11.28;77.86;98270.72;5134990;27;41519;-81
2022/10/01 07:07:43;;;;;;;2.23;2.03;;;;;;;11.19;78.31;98260.81;5135004;27;43123;-84
2022/10/01 07:10:12;;;;;;;1.90;1.80;;;;;;;11.20;77.98;98255.38;5117109;27;39989;-83
2022/10/01 07:12:39;;;;;;;3.47;2.43;;;;;;;11.33;78.55;98268.56;5134953;27;42699;-82
2022/10/01 07:15:09;;;;;;;1.90;1.80;;;;;;;11.19;78.47;98251.03;5134393;27;44056;-81
2022/10/01 07:17:44;;;;;;;2.70;2.50;;;;;;;11.21;78.67;98250.94;5134147;27;42476;-81
2022/10/01 07:20:16;;;;;;;2.93;2.10;;;;;;;11.29;78.91;98256.50;5134309;27;41925;-81
2022/10/01 07:22:44;;;;;;;2.90;2.00;;;;;;;10.97;78.67;98209.41;5134862;27;40942;-83
2022/10/01 07:25:12;;;;;;;2.33;2.00;;;;;;;11.27;79.42;98250.47;5134156;27;41597;-85
2022/10/01 07:27:40;;;;;;;2.37;2.07;;;;;;;11.19;79.16;98243.09;5135758;27;42241;-81
2022/10/01 07:30:08;;;;;;;3.83;1.83;;;;;;;11.33;78.97;98255.31;5134045;27;41420;-82
2022/10/01 07:32:36;;;;;;;3.17;1.83;;;;;;;11.34;79.30;98254.34;5134406;27;41653;-81
2022/10/01 07:35:05;;;;;;;2.13;1.97;;;;;;;11.37;78.96;98256.78;5135120;27;42725;-80
2022/10/01 07:37:34;;;;;;;2.53;2.00;;;;;;;11.38;79.25;98261.94;5134151;27;41965;-83
2022/10/01 07:40:02;;;;;;;2.20;2.00;;;;;;;11.40;79.25;98260.03;5116176;27;38927;-82
2022/10/01 07:42:30;;;;;;;3.03;1.97;;;;;;;11.35;80.15;98258.69;5134999;27;42681;-80
2022/10/01 07:44:58;;;;;;;2.50;1.97;;;;;;;11.34;79.81;98246.41;5133716;27;42801;-80
2022/10/01 07:47:25;;;;;;;2.10;2.00;;;;;;;11.35;79.86;98246.28;5133864;27;42414;-84
2022/10/01 07:49:53;;;;;;;2.50;2.30;;;;;;;11.36;80.39;98236.53;5134014;27;40075;-82
2022/10/01 07:52:20;;;;;;;3.23;2.20;;;;;;;11.31;80.21;98218.31;5133927;27;41793;-79
2022/10/01 07:54:50;;;;;;;3.27;2.23;;;;;;;11.36;80.39;98223.28;5134655;27;42801;-80
2022/10/01 07:57:17;;;;;;;2.40;2.20;;;;;;;11.01;80.69;98163.16;5134880;27;43054;-79
2022/10/01 07:59:45;;;;;;;4.63;2.20;;;;;;;11.29;80.76;98192.88;5133837;27;38824;-81
2022/10/01 08:02:14;;;;;;;2.30;2.10;;;;;;;11.44;80.81;98207.63;5133904;27;41728;-81
2022/10/01 08:07:27;;;;;;;2.40;2.20;;;;;;;11.45;80.70;98202.22;5116450;27;44414;-79
2022/10/01 08:09:57;;;;;;;2.20;2.00;;;;;;;11.46;80.70;98189.81;5134633;27;41857;-84
2022/10/01 08:12:29;;;;;;;2.30;2.10;;;;;;;11.30;81.18;98176.88;5133936;27;41650;-81
2022/10/01 08:14:57;;;;;;;2.43;2.23;;;;;;;11.54;81.22;98208.59;5116093;27;41620;-80
2022/10/01 08:17:24;;;;;;;3.07;2.03;;;;;;;11.50;81.47;98181.47;5116163;27;41472;-85
2022/10/01 08:19:52;;;;;;;3.27;2.10;;;;;;;11.57;81.52;98202.22;5133176;27;39172;-81
2022/10/01 08:22:20;;;;;;;3.40;2.67;;;;;;;11.51;81.21;98187.63;5116231;27;41473;-82
2022/10/01 10:23:08;;;;;;;2.10;1.90;;;;;;;10.65;100.00;98165.91;5109081;28;21124;-77
2022/10/01 10:25:36;;;;;;;1.80;1.43;;;;;;;11.25;100.00;98171.06;5108227;28;39103;-77
2022/10/01 10:28:04;;;;;;;1.53;1.20;;;;;;;11.82;98.45;98176.38;5108177;28;41485;-77
2022/10/01 10:30:31;;;;;;;2.23;1.20;;;;;;;12.24;93.66;98176.56;5108938;28;44140;-78
2022/10/01 10:33:06;;;;;;;1.37;1.20;;;;;;;12.48;90.63;98185.25;5109178;28;42099;-77
2022/10/01 10:35:34;;;;;;;1.20;1.10;;;;;;;12.52;89.10;98160.09;5139496;27;39849;-79
2022/10/01 10:38:02;;;;;;;2.10;1.00;;;;;;;12.75;87.03;98186.59;5108108;28;40751;-79
2022/10/01 10:40:41;;;;;;;1.17;1.07;;;;;;;12.62;85.57;98170.81;5107274;28;43647;-78
2022/10/01 10:43:19;;;;;;;1.10;1.00;;;;;;;12.77;85.62;98179.34;5094851;27;42447;-80
2022/10/01 10:45:54;;;;;;;1.27;0.97;;;;;;;12.70;84.77;98183.50;5090527;28;38794;-81
2022/10/01 10:48:24;;;;;;;1.33;1.23;;;;;;;12.67;84.60;98181.94;5107171;27;41717;-78
2022/10/01 10:51:00;;;;;;;1.23;1.00;;;;;;;12.78;84.52;98181.88;5096731;28;41798;-76
2022/10/01 10:53:32;;;;;;;1.20;1.10;;;;;;;12.77;84.22;98195.28;5110352;27;41918;-78
2022/10/01 10:56:04;;;;;;;1.10;1.10;;;;;;;12.39;84.48;98114.28;5113328;27;40612;-78
2022/10/01 10:58:33;;;;;;;1.23;1.13;;;;;;;12.78;84.25;98175.72;5106773;27;42351;-77
2022/10/01 11:01:09;;;;;;;2.17;1.30;;;;;;;12.72;84.27;98155.00;5087610;28;41730;-78
2022/10/01 11:03:38;;;;;;;1.33;1.23;;;;;;;12.91;83.90;98168.44;5100952;28;42134;-77
2022/10/01 11:06:11;;;;;;;1.30;1.20;;;;;;;12.92;83.97;98172.78;5105243;28;41022;-77
2022/10/01 11:08:40;;;;;;;2.33;1.70;;;;;;;12.90;83.70;98169.41;5097649;28;41816;-78
2022/10/01 11:11:26;;;;;;;1.50;1.13;;;;;;;12.88;83.95;98176.66;5102043;28;42611;-78
2022/10/01 11:14:10;;;;;;;1.40;1.30;;;;;;;12.90;83.82;98177.38;5096587;28;42497;-77
2022/10/01 11:16:54;;;;;;;1.60;1.50;;;;;;;13.05;83.42;98168.13;5101023;28;40162;-78
2022/10/01 11:19:34;;;;;;;1.53;1.43;;;;;;;13.16;83.02;98160.13;5101133;28;42865;-78
2022/10/01 11:22:18;;;;;;;1.43;1.33;;;;;;;13.39;82.56;98165.31;5103123;28;41917;-76
2022/10/01 11:25:00;;;;;;;1.73;1.57;;;;;;;13.69;82.02;98167.19;5087475;28;41602;-78
2022/10/01 11:27:38;;;;;;;1.20;1.10;;;;;;;14.18;80.31;98166.41;5102922;28;40626;-78
2022/10/01 11:30:11;;;;;;;1.63;1.40;;;;;;;14.54;78.77;98141.84;5101502;28;41454;-77
2022/10/01 11:32:45;;;;;;;1.73;1.63;;;;;;;14.52;77.69;98157.13;5100245;28;41977;-77
2022/10/01 11:35:38;;;;;;;1.47;1.30;;;;;;;14.51;77.42;98162.59;5085611;28;42957;-77
2022/10/01 11:38:25;;;;;;;1.43;1.33;;;;;;;14.28;77.89;98141.50;5084118;28;39625;-79
2022/10/01 11:40:59;;;;;;;1.20;1.10;;;;;;;14.27;77.95;98133.63;5084667;28;43204;-78
2022/10/01 11:43:32;;;;;;;1.57;1.47;;;;;;;14.54;77.81;98165.00;5081548;28;41735;-78
2022/10/01 11:46:06;;;;;;;2.17;1.50;;;;;;;14.36;77.81;98133.66;5096058;28;41921;-77
2022/10/01 11:48:41;;;;;;;1.10;1.10;;;;;;;14.37;77.94;98155.81;5080817;28;38720;-78
2022/10/01 11:51:15;;;;;;;1.53;1.10;;;;;;;14.49;77.91;98165.41;5099597;28;41985;-78
2022/10/01 11:53:48;;;;;;;1.13;1.13;;;;;;;14.49;77.74;98164.56;5082879;28;43086;-78
2022/10/01 11:59:13;;;;;;;0.90;0.90;;;;;;;14.62;77.69;98173.97;5073424;28;39093;-78
2022/10/01 12:01:46;;;;;;;0.93;0.93;;;;;;;14.58;77.86;98137.94;5081227;28;42007;-77
2022/10/01 12:04:25;;;;;;;1.23;1.10;;;;;;;14.70;76.50;98166.16;5080221;28;45280;-77
2022/10/01 12:06:57;;;;;;;1.20;1.20;;;;;;;14.78;76.59;98167.28;5073442;28;40924;-77
2022/10/01 12:09:32;;;;;;;0.90;0.90;;;;;;;14.85;76.51;98171.06;5097057;28;39931;-77
2022/10/01 12:12:05;;;;;;;1.10;1.00;;;;;;;14.87;75.75;98172.59;5082352;28;41028;-77
2022/10/01 12:14:41;;;;;;;0.70;0.70;;;;;;;14.63;76.24;98138.34;5096580;28;42862;-79
2022/10/01 12:17:16;;;;;;;0.87;0.87;;;;;;;14.78;75.56;98178.78;5090089;28;41909;-80
2022/10/01 12:19:49;;;;;;;0.80;0.80;;;;;;;14.54;75.25;98149.84;5101918;28;40110;-76
2022/10/01 12:22:24;;;;;;;0.87;0.80;;;;;;;14.59;76.55;98187.56;5078592;28;42342;-78
2022/10/01 12:24:53;;;;;;;0.80;0.80;;;;;;;14.50;77.28;98187.56;5076414;28;44545;-78
2022/10/01 12:27:50;;;;;;;0.63;0.63;;;;;;;14.42;77.40;98182.91;5099140;28;43311;-78
2022/10/01 12:30:23;;;;;;;0.83;0.83;;;;;;;14.58;77.80;98196.56;5079589;28;39753;-76
2022/10/01 12:33:03;;;;;;;1.87;1.00;;;;;;;14.60;77.46;98201.75;5100010;28;40586;-78
2022/10/01 12:35:46;;;;;;;1.60;0.80;;;;;;;14.59;77.13;98192.06;5071429;28;43345;-77
2022/10/01 12:38:31;;;;;;;0.77;0.77;;;;;;;14.64;77.31;98209.34;5087408;28;42942;-77
2022/10/01 12:41:10;;;;;;;1.50;0.80;;;;;;;14.63;77.56;98217.47;5087224;28;40864;-78
2022/10/01 12:44:12;;;;;;;0.87;0.87;;;;;;;14.60;77.65;98205.25;5088257;28;42600;-76
2022/10/01 12:46:51;;;;;;;0.97;0.90;;;;;;;14.57;78.04;98202.88;5108519;27;42399;-77
2022/10/01 12:49:29;;;;;;;1.13;0.80;;;;;;;14.54;77.83;98203.16;5087684;28;41911;-78
2022/10/01 12:52:11;;;;;;;1.27;1.13;;;;;;;14.49;78.07;98202.69;5110904;27;40678;-76
2022/10/01 12:54:56;;;;;;;1.43;0.90;;;;;;;14.58;77.81;98212.56;5088280;28;41542;-77
2022/10/01 12:57:41;;;;;;;1.13;0.97;;;;;;;14.59;77.78;98211.56;5085787;28;43764;-78
2022/10/01 13:00:15;;;;;;;1.17;1.07;;;;;;;14.65;77.89;98220.84;5095649;28;42027;-77
2022/10/01 13:03:04;;;;;;;1.20;0.97;;;;;;;14.71;77.63;98207.78;5071332;28;39695;-78
2022/10/01 13:05:40;;;;;;;1.13;1.00;;;;;;;15.08;77.02;98217.81;5072517;28;40659;-76
2022/10/01 13:08:27;;;;;;;1.00;0.80;;;;;;;15.37;75.98;98223.13;5069356;28;44587;-78
2022/10/01 13:11:04;;;;;;;1.90;0.90;;;;;;;15.43;75.04;98207.41;5083969;28;42738;-77
2022/10/01 13:13:33;;;;;;;1.13;1.03;;;;;;;15.59;74.56;98227.34;5069788;28;39097;-78
2022/10/01 13:16:09;;;;;;;1.30;1.20;;;;;;;15.62;74.40;98214.56;5088716;28;42509;-78
2022/10/01 13:18:50;;;;;;;1.23;1.20;;;;;;;15.74;74.01;98217.94;5084267;28;42938;-77
2022/10/01 13:21:24;;;;;;;1.13;0.90;;;;;;;15.82;73.89;98218.06;5106963;27;43143;-78
2022/10/01 13:23:59;;;;;;;0.80;0.80;;;;;;;15.91;72.99;98225.19;5087224;28;38561;-78
2022/10/01 13:26:32;;;;;;;1.10;1.00;;;;;;;15.90;73.31;98225.34;5089079;28;42070;-78
2022/10/01 13:29:19;;;;;;;1.77;1.33;;;;;;;15.90;72.91;98228.84;5096897;28;42046;-76
2022/10/01 13:31:56;;;;;;;1.13;1.03;;;;;;;15.75;72.98;98220.47;5071687;28;40902;-77
2022/10/01 13:34:35;;;;;;;1.47;1.03;;;;;;;15.77;73.32;98241.66;5113829;27;40843;-77
2022/10/01 13:37:13;;;;;;;1.80;1.00;;;;;;;15.77;73.26;98241.66;5097502;28;41012;-79
2022/10/01 13:39:42;;;;;;;1.10;1.00;;;;;;;15.77;73.42;98247.00;5089829;28;43722;-78
2022/10/01 13:42:29;;;;;;;1.03;0.97;;;;;;;15.82;73.17;98239.44;5111617;27;43168;-79
2022/10/01 13:44:58;;;;;;;1.40;0.97;;;;;;;15.85;73.01;98233.78;5070393;28;40770;-77
2022/10/01 13:47:27;;;;;;;0.90;0.90;;;;;;;15.95;72.35;98239.94;5089497;28;42268;-76
2022/10/01 13:50:02;;;;;;;1.00;0.97;;;;;;;16.11;72.39;98244.66;5088496;28;42608;-77
2022/10/01 13:52:31;;;;;;;1.50;1.00;;;;;;;16.28;71.93;98253.78;5084623;28;42023;-77
2022/10/01 13:55:00;;;;;;;1.20;1.10;;;;;;;16.28;71.80;98248.41;5124805;27;39916;-76
2022/10/01 13:57:32;;;;;;;0.90;0.90;;;;;;;16.38;71.42;98258.09;5089893;28;40874;-77
2022/10/01 14:00:22;;;;;;;0.90;0.90;;;;;;;16.57;71.02;98229.59;5087656;28;43683;-77
2022/10/01 14:03:05;;;;;;;1.67;1.00;;;;;;;17.46;69.61;98255.47;5090496;28;42335;-77
2022/10/01 14:05:39;;;;;;;1.00;0.90;;;;;;;18.08;67.00;98264.34;5091032;28;40673;-77